Time;durP1;ratioP1;P1;durP2;ratioP2;P2;SDS_P1;SDS_P2;PMS_P1;PMS_P2;Temp;Humidity;BMP_temperature;BMP_pressure;BME280_temperature;BME280_humidity;BME280_pressure;Samples;Min_cycle;Max_cycle;Signal;HPM_P1;HPM_P2
2022/06/17 00:02:04;;;;;;;;;;;;;;;11.08;90.15;99523.97;1803597;79;20479;-69
2022/06/17 00:04:31;;;;;;;;;;;;;;;11.04;90.11;99515.56;1803344;79;20144;-69
2022/06/17 00:07:03;;;;;;;;;;;;;;;11.00;90.19;99520.07;1803362;79;21538;-69
2022/06/17 00:09:30;;;;;;;;;;;;;;;10.94;90.21;99518.63;1803308;79;20455;-69
2022/06/17 00:11:57;;;;;;;;;;;;;;;10.88;91.08;99514.41;1803301;79;20139;-69
2022/06/17 00:14:31;;;;;;;;;;;;;;;10.89;91.51;99516.03;1803481;79;20064;-69
2022/06/17 00:16:58;;;;;;;;;;;;;;;10.87;91.42;99516.91;1803504;79;20100;-69
2022/06/17 00:19:25;;;;;;;;;;;;;;;10.82;91.68;99516.48;1803352;79;21179;-69
2022/06/17 00:21:53;;;;;;;;;;;;;;;10.80;91.81;99516.00;1803346;79;20088;-69
2022/06/17 00:24:25;;;;;;;;;;;;;;;10.78;91.60;99511.95;1803261;79;20108;-69
2022/06/17 00:26:53;;;;;;;;;;;;;;;10.72;91.67;99512.66;1803174;79;20111;-69
2022/06/17 00:29:21;;;;;;;;;;;;;;;10.68;91.90;99514.98;1803419;79;20108;-69
2022/06/17 00:31:48;;;;;;;;;;;;;;;10.64;92.08;99514.80;1803565;79;21481;-69
2022/06/17 00:34:14;;;;;;;;;;;;;;;10.61;92.14;99516.00;1803423;79;20147;-69
2022/06/17 00:36:41;;;;;;;;;;;;;;;10.58;92.21;99515.50;1803310;79;20136;-69
2022/06/17 00:39:18;;;;;;;;;;;;;;;10.58;92.14;99516.06;1778956;79;20419;-69
2022/06/17 00:41:50;;;;;;;;;;;;;;;10.55;92.23;99512.02;1801970;79;20088;-69
2022/06/17 00:44:35;;;;;;;;;;;;;;;10.52;92.27;99507.16;1803598;79;21777;-69
2022/06/17 00:47:09;;;;;;;;;;;;;;;10.50;92.40;99505.86;1803071;79;20372;-69
2022/06/17 00:49:44;;;;;;;;;;;;;;;10.49;92.45;99503.67;1803396;79;20076;-69
2022/06/17 00:52:17;;;;;;;;;;;;;;;10.49;92.57;99505.05;1803518;79;20092;-69
2022/06/17 00:54:52;;;;;;;;;;;;;;;10.47;92.49;99501.81;1802938;79;20084;-69
2022/06/17 00:57:37;;;;;;;;;;;;;;;10.45;92.48;99499.94;1795614;79;21562;-69
2022/06/17 01:00:13;;;;;;;;;;;;;;;10.43;92.51;99497.27;1803087;79;20100;-69
2022/06/17 01:02:46;;;;;;;;;;;;;;;10.41;92.48;99494.84;1780881;79;20164;-70
2022/06/17 01:05:14;;;;;;;;;;;;;;;10.40;92.68;99503.41;1745710;80;20539;-69
2022/06/17 01:07:49;;;;;;;;;;;;;;;10.38;92.65;99491.94;1764563;81;20413;-69
2022/06/17 01:10:17;;;;;;;;;;;;;;;10.37;92.63;99486.20;1799753;79;21559;-69
2022/06/17 01:12:50;;;;;;;;;;;;;;;10.35;92.60;99493.38;1768692;81;20118;-69
2022/06/17 01:15:20;;;;;;;;;;;;;;;10.33;92.68;99491.52;1791511;79;20101;-69
2022/06/17 01:17:49;;;;;;;;;;;;;;;10.31;92.78;99484.73;1800142;79;20432;-70
2022/06/17 01:20:15;;;;;;;;;;;;;;;10.30;92.83;99492.15;1800027;79;20172;-69
2022/06/17 01:22:50;;;;;;;;;;;;;;;10.29;92.92;99488.34;1771104;79;42409;-69
2022/06/17 01:25:21;;;;;;;;;;;;;;;10.27;93.05;99488.66;1800094;79;20090;-69
2022/06/17 01:27:52;;;;;;;;;;;;;;;10.24;92.98;99483.23;1800199;79;20149;-69
2022/06/17 01:30:23;;;;;;;;;;;;;;;10.23;93.07;99475.33;1799490;79;20086;-69
2022/06/17 01:32:59;;;;;;;;;;;;;;;10.21;93.09;99480.31;1800176;79;20113;-69
2022/06/17 01:35:28;;;;;;;;;;;;;;;10.20;93.17;99484.18;1799419;79;21635;-70
2022/06/17 01:37:56;;;;;;;;;;;;;;;10.18;93.26;99480.35;1791098;79;20094;-69
2022/06/17 01:40:24;;;;;;;;;;;;;;;10.17;93.48;99480.10;1800175;79;20089;-69
2022/06/17 01:42:50;;;;;;;;;;;;;;;10.17;93.55;99480.10;1766863;81;20370;-69
2022/06/17 01:45:17;;;;;;;;;;;;;;;10.15;93.53;99476.86;1800285;79;20078;-70
2022/06/17 01:47:44;;;;;;;;;;;;;;;10.14;93.63;99476.62;1800114;79;21114;-69
2022/06/17 01:50:19;;;;;;;;;;;;;;;10.13;93.89;99472.81;1767031;81;20114;-69
2022/06/17 01:53:06;;;;;;;;;;;;;;;10.13;94.00;99474.19;1800510;79;20085;-69
2022/06/17 01:55:37;;;;;;;;;;;;;;;10.13;94.08;99475.00;1797438;80;20101;-68
2022/06/17 01:58:12;;;;;;;;;;;;;;;10.13;94.32;99475.00;1797908;79;20113;-68
2022/06/17 02:00:41;;;;;;;;;;;;;;;10.15;94.54;99478.80;1797630;80;21109;-68
2022/06/17 02:03:14;;;;;;;;;;;;;;;10.16;94.61;99476.30;1786054;79;20179;-68
2022/06/17 02:05:42;;;;;;;;;;;;;;;10.14;94.74;99474.44;1765816;81;20116;-69
2022/06/17 02:08:09;;;;;;;;;;;;;;;10.15;94.96;99473.31;1765707;80;20080;-69
2022/06/17 02:10:38;;;;;;;;;;;;;;;10.16;95.00;99470.25;1770429;80;20164;-69
2022/06/17 02:13:05;;;;;;;;;;;;;;;10.17;95.10;99465.58;1787862;80;21188;-68
2022/06/17 02:15:34;;;;;;;;;;;;;;;10.18;95.13;99463.08;1790211;80;20868;-68
2022/06/17 02:18:11;;;;;;;;;;;;;;;10.20;95.17;99464.42;1795260;80;20090;-69
2022/06/17 02:20:43;;;;;;;;;;;;;;;10.22;95.32;99461.36;1797180;79;20403;-70
2022/06/17 02:23:10;;;;;;;;;;;;;;;10.26;95.73;99452.75;1797310;80;20110;-74
2022/06/17 02:25:40;;;;;;;;;;;;;;;10.32;95.89;99457.53;1797424;79;21134;-69
2022/06/17 02:28:08;;;;;;;;;;;;;;;10.35;95.84;99453.59;1797172;79;20090;-69
2022/06/17 02:30:34;;;;;;;;;;;;;;;10.41;96.04;99457.79;1797539;80;20165;-69
2022/06/17 02:33:02;;;;;;;;;;;;;;;10.47;96.18;99459.27;1797371;80;20267;-69
2022/06/17 02:35:48;;;;;;;;;;;;;;;10.52;96.60;99460.50;1797220;80;20069;-69
2022/06/17 02:38:19;;;;;;;;;;;;;;;10.61;96.92;99456.98;1795019;78;21115;-69
2022/06/17 02:40:48;;;;;;;;;;;;;;;10.70;97.23;99454.51;1792214;80;20090;-70
2022/06/17 02:43:19;;;;;;;;;;;;;;;10.78;97.41;99456.47;1797350;79;20157;-69
2022/06/17 02:45:49;;;;;;;;;;;;;;;10.86;97.41;99449.38;1796457;79;20203;-70
2022/06/17 02:48:19;;;;;;;;;;;;;;;10.95;97.58;99452.95;1796769;79;20499;-69
2022/06/17 02:50:45;;;;;;;;;;;;;;;11.03;97.73;99446.64;1797399;79;21120;-69
2022/06/17 02:53:12;;;;;;;;;;;;;;;11.12;97.95;99443.91;1794084;80;20094;-69
2022/06/17 02:55:39;;;;;;;;;;;;;;;11.19;98.09;99445.05;1763272;80;20442;-69
2022/06/17 02:58:27;;;;;;;;;;;;;;;11.28;98.22;99450.55;1731220;80;20112;-70
2022/06/17 03:00:53;;;;;;;;;;;;;;;11.35;98.18;99450.07;1787319;80;20468;-69
2022/06/17 03:03:20;;;;;;;;;;;;;;;11.45;98.34;99449.75;1787222;80;21054;-69
2022/06/17 03:05:46;;;;;;;;;;;;;;;11.52;98.50;99445.95;1727757;81;20123;-69
2022/06/17 03:08:24;;;;;;;;;;;;;;;11.61;98.63;99450.84;1770962;81;20090;-69
2022/06/17 03:10:53;;;;;;;;;;;;;;;11.68;98.57;99447.61;1770950;81;20095;-70
2022/06/17 03:13:27;;;;;;;;;;;;;;;11.76;98.52;99451.72;1770793;81;20114;-69
2022/06/17 03:15:56;;;;;;;;;;;;;;;11.85;98.47;99448.42;1770628;81;21808;-69
2022/06/17 03:18:23;;;;;;;;;;;;;;;11.93;98.26;99453.67;1770884;81;20090;-69
2022/06/17 03:20:49;;;;;;;;;;;;;;;12.01;98.22;99445.16;1747157;81;20158;-69
2022/06/17 03:23:20;;;;;;;;;;;;;;;12.08;98.33;99448.22;1770881;81;20971;-69
2022/06/17 03:26:07;;;;;;;;;;;;;;;12.16;98.32;99451.48;1771004;81;20086;-69
2022/06/17 03:28:40;;;;;;;;;;;;;;;12.22;98.36;99445.47;1770953;81;21898;-69
2022/06/17 03:31:15;;;;;;;;;;;;;;;12.32;98.38;99444.87;1772784;80;20421;-67
2022/06/17 03:33:45;;;;;;;;;;;;;;;12.41;98.34;99451.97;1777115;80;20113;-68
2022/06/17 03:36:32;;;;;;;;;;;;;;;12.48;97.84;99449.51;1770777;81;20450;-68
2022/06/17 03:39:01;;;;;;;;;;;;;;;12.56;97.50;99450.61;1776269;80;20085;-68
2022/06/17 03:41:49;;;;;;;;;;;;;;;12.66;97.02;99448.05;1750773;80;21267;-68
2022/06/17 03:44:18;;;;;;;;;;;;;;;12.75;96.73;99442.70;1778483;80;20149;-68
2022/06/17 03:46:53;;;;;;;;;;;;;;;12.87;96.36;99446.13;1778728;80;20082;-69
2022/06/17 03:49:43;;;;;;;;;;;;;;;13.00;95.79;99445.08;1778511;80;20430;-68
2022/06/17 03:52:20;;;;;;;;;;;;;;;13.14;94.85;99440.69;1764538;80;20424;-69
2022/06/17 03:54:47;;;;;;;;;;;;;;;13.32;93.92;99433.91;1794605;80;21141;-69
2022/06/17 03:57:14;;;;;;;;;;;;;;;13.52;92.07;99439.19;1794598;80;20115;-69
2022/06/17 03:59:41;;;;;;;;;;;;;;;13.72;90.94;99442.49;1794744;80;20111;-69
2022/06/17 04:02:11;;;;;;;;;;;;;;;13.95;90.42;99437.94;1791180;80;20192;-69
2022/06/17 04:04:40;;;;;;;;;;;;;;;14.14;90.30;99438.23;1771948;80;20114;-70
2022/06/17 04:07:06;;;;;;;;;;;;;;;14.28;87.72;99433.20;1764062;81;21134;-72
2022/06/17 04:09:39;;;;;;;;;;;;;;;14.43;86.41;99429.80;1763953;81;20469;-71
2022/06/17 04:12:19;;;;;;;;;;;;;;;14.59;84.22;99428.51;1764124;81;20087;-71
2022/06/17 04:14:48;;;;;;;;;;;;;;;14.74;82.96;99429.77;1763301;81;21580;-70
2022/06/17 04:17:22;;;;;;;;;;;;;;;14.90;81.87;99432.65;1764160;81;20134;-71
2022/06/17 04:19:54;;;;;;;;;;;;;;;15.04;81.09;99438.02;1764078;81;20111;-69
2022/06/17 04:22:27;;;;;;;;;;;;;;;15.14;78.28;99438.12;1762462;81;20094;-70
2022/06/17 04:25:04;;;;;;;;;;;;;;;15.17;77.89;99435.46;1751303;81;20114;-68
2022/06/17 04:30:21;;;;;;;;;;;;;;;15.24;78.04;99429.34;1743144;81;20098;-69
2022/06/17 04:32:53;;;;;;;;;;;;;;;15.29;77.01;99435.20;1742697;81;20417;-67
2022/06/17 04:35:20;;;;;;;;;;;;;;;15.32;74.81;99430.36;1742666;82;20118;-68
2022/06/17 04:37:48;;;;;;;;;;;;;;;15.36;74.79;99432.66;1742822;81;20086;-67
2022/06/17 04:40:40;;;;;;;;;;;;;;;15.44;74.45;99431.70;1742429;82;20153;-68
2022/06/17 04:43:25;;;;;;;;;;;;;;;15.54;74.18;99427.06;1731439;82;20118;-67
2022/06/17 04:45:55;;;;;;;;;;;;;;;15.66;74.11;99424.25;1742493;82;21796;-68
2022/06/17 04:48:21;;;;;;;;;;;;;;;15.78;73.94;99424.20;1742789;82;20143;-68
2022/06/17 04:50:48;;;;;;;;;;;;;;;15.92;73.10;99422.98;1743061;82;20481;-69
2022/06/17 04:53:16;;;;;;;;;;;;;;;16.05;71.77;99423.14;1760415;81;20148;-67
2022/06/17 04:55:50;;;;;;;;;;;;;;;16.18;70.92;99418.53;1745204;81;20204;-68
2022/06/17 04:58:22;;;;;;;;;;;;;;;16.30;69.89;99421.80;1761592;81;20151;-67
2022/06/17 05:00:54;;;;;;;;;;;;;;;16.43;69.37;99423.91;1761459;81;20123;-66
2022/06/17 05:03:25;;;;;;;;;;;;;;;16.56;69.09;99425.43;1712024;83;20194;-70
2022/06/17 05:05:53;;;;;;;;;;;;;;;16.68;68.22;99416.25;1765715;81;20451;-71
2022/06/17 05:08:26;;;;;;;;;;;;;;;16.81;68.63;99417.72;1768178;81;20110;-71
2022/06/17 05:10:58;;;;;;;;;;;;;;;16.95;68.50;99413.89;1735684;82;20120;-71
2022/06/17 05:13:29;;;;;;;;;;;;;;;17.12;68.10;99412.11;1763514;81;20177;-71
2022/06/17 05:15:57;;;;;;;;;;;;;;;17.28;66.14;99414.03;1768202;81;20427;-72
2022/06/17 05:18:25;;;;;;;;;;;;;;;17.44;66.52;99414.16;1768197;81;20079;-71
2022/06/17 05:20:56;;;;;;;;;;;;;;;17.61;65.73;99412.92;1767267;81;20458;-70
2022/06/17 05:23:22;;;;;;;;;;;;;;;17.79;65.61;99406.36;1768625;80;21513;-72
2022/06/17 05:25:50;;;;;;;;;;;;;;;17.98;64.96;99404.92;1767937;81;20091;-71
2022/06/17 05:28:19;;;;;;;;;;;;;;;18.14;63.91;99410.38;1768208;81;20094;-71
2022/06/17 05:30:51;;;;;;;;;;;;;;;18.31;63.80;99404.33;1768120;80;20983;-71
2022/06/17 05:33:20;;;;;;;;;;;;;;;18.51;62.52;99395.89;1768460;81;20096;-72
2022/06/17 05:35:48;;;;;;;;;;;;;;;18.70;62.19;99393.05;1768127;81;21558;-70
2022/06/17 05:38:15;;;;;;;;;;;;;;;18.91;61.91;99396.16;1767974;81;20143;-72
2022/06/17 05:40:43;;;;;;;;;;;;;;;19.12;60.80;99399.81;1775419;79;20422;-69
2022/06/17 05:43:10;;;;;;;;;;;;;;;19.29;58.96;99395.67;1766576;81;20097;-68
2022/06/17 05:45:37;;;;;;;;;;;;;;;19.46;58.33;99390.34;1791322;79;20121;-68
2022/06/17 05:48:07;;;;;;;;;;;;;;;19.66;56.98;99406.87;1785414;79;21878;-68
2022/06/17 05:50:45;;;;;;;;;;;;;;;19.83;56.25;99405.48;1772910;79;20118;-69
2022/06/17 05:53:16;;;;;;;;;;;;;;;19.97;55.50;99404.25;1763842;81;20134;-70
2022/06/17 05:55:47;;;;;;;;;;;;;;;20.12;55.57;99403.22;1798907;79;20465;-69
2022/06/17 05:58:14;;;;;;;;;;;;;;;20.28;55.69;99403.74;1767803;81;20083;-68
2022/06/17 06:00:41;;;;;;;;;;;;;;;20.46;56.50;99406.72;1767051;81;21254;-68
2022/06/17 06:03:08;;;;;;;;;;;;;;;20.62;54.38;99405.06;1799602;79;20094;-68
2022/06/17 06:05:37;;;;;;;;;;;;;;;20.74;53.35;99406.95;1799169;79;20144;-68
2022/06/17 06:08:07;;;;;;;;;;;;;;;20.81;52.66;99402.00;1799920;78;20109;-70
2022/06/17 06:10:34;;;;;;;;;;;;;;;20.91;52.59;99404.06;1800226;78;20085;-72
2022/06/17 06:13:03;;;;;;;;;;;;;;;21.01;53.12;99402.53;1800104;79;21131;-72
2022/06/17 06:15:42;;;;;;;;;;;;;;;21.13;53.03;99398.62;1799364;79;20097;-70
2022/06/17 06:18:28;;;;;;;;;;;;;;;21.22;51.82;99399.09;1798825;79;20106;-72
2022/06/17 06:20:55;;;;;;;;;;;;;;;21.31;52.66;99393.38;1799564;79;20089;-70
2022/06/17 06:23:23;;;;;;;;;;;;;;;21.37;51.62;99384.80;1800011;79;20102;-71
2022/06/17 06:25:50;;;;;;;;;;;;;;;21.40;51.68;99391.59;1773140;79;21176;-70
2022/06/17 06:28:19;;;;;;;;;;;;;;;21.42;51.58;99392.80;1799956;79;20077;-71
2022/06/17 06:30:51;;;;;;;;;;;;;;;21.48;50.86;99392.42;1773768;79;20157;-70
2022/06/17 06:33:18;;;;;;;;;;;;;;;21.51;51.47;99391.04;1800185;79;20078;-70
2022/06/17 06:35:45;;;;;;;;;;;;;;;21.59;50.47;99393.27;1799984;79;20471;-72
2022/06/17 06:38:13;;;;;;;;;;;;;;;21.66;49.95;99387.11;1799883;79;21161;-72
2022/06/17 06:40:40;;;;;;;;;;;;;;;21.71;49.02;99386.73;1800156;79;20449;-72
2022/06/17 06:43:18;;;;;;;;;;;;;;;21.70;48.76;99385.73;1799974;79;20066;-74
2022/06/17 06:45:55;;;;;;;;;;;;;;;21.65;48.64;99384.71;1741752;82;20143;-70
2022/06/17 06:48:24;;;;;;;;;;;;;;;21.57;49.22;99381.69;1786046;79;20542;-70
2022/06/17 06:50:50;;;;;;;;;;;;;;;21.53;48.83;99385.86;1759937;81;21115;-69
2022/06/17 06:53:16;;;;;;;;;;;;;;;21.53;48.94;99380.27;1746808;82;20099;-70
2022/06/17 06:55:43;;;;;;;;;;;;;;;21.59;50.03;99377.30;1747038;82;20095;-69
2022/06/17 06:58:12;;;;;;;;;;;;;;;21.68;50.06;99383.33;1746673;82;20154;-70
2022/06/17 07:00:44;;;;;;;;;;;;;;;21.73;48.17;99384.94;1746834;82;20201;-70
2022/06/17 07:03:10;;;;;;;;;;;;;;;21.75;49.25;99384.75;1792071;80;21046;-69
2022/06/17 07:05:39;;;;;;;;;;;;;;;21.86;49.49;99378.39;1789090;80;20111;-69
2022/06/17 07:08:06;;;;;;;;;;;;;;;22.02;49.30;99383.02;1742401;81;20082;-69
2022/06/17 07:10:33;;;;;;;;;;;;;;;22.15;49.19;99387.03;1765967;81;20424;-70
2022/06/17 07:13:00;;;;;;;;;;;;;;;22.31;47.95;99390.85;1765830;81;20484;-70
2022/06/17 07:15:27;;;;;;;;;;;;;;;22.46;47.27;99389.66;1766178;81;21130;-71
2022/06/17 07:18:01;;;;;;;;;;;;;;;22.58;46.39;99393.44;1765917;81;20090;-69
2022/06/17 07:20:36;;;;;;;;;;;;;;;22.66;45.02;99393.63;1769127;81;20151;-69
2022/06/17 07:23:00;;;;;;;;;;;;;;;22.69;45.44;99392.03;1766535;79;20094;-71
2022/06/17 07:25:26;;;;;;;;;;;;;;;22.77;44.90;99388.63;1766259;81;20138;-69
2022/06/17 07:27:53;;;;;;;;;;;;;;;22.89;45.95;99384.05;1766026;81;21510;-70
2022/06/17 07:30:21;;;;;;;;;;;;;;;23.00;44.38;99389.03;1766257;81;20098;-70
2022/06/17 07:32:47;;;;;;;;;;;;;;;23.05;44.52;99389.41;1766307;81;20094;-69
2022/06/17 07:35:14;;;;;;;;;;;;;;;23.09;44.29;99392.20;1766159;81;20442;-69
2022/06/17 07:40:28;;;;;;;;;;;;;;;23.11;42.75;99390.41;1766338;81;20122;-69
2022/06/17 07:42:56;;;;;;;;;;;;;;;23.13;43.33;99381.77;1766429;81;20154;-70
2022/06/17 07:45:23;;;;;;;;;;;;;;;23.21;42.38;99384.75;1766252;81;20090;-69
2022/06/17 07:47:51;;;;;;;;;;;;;;;23.20;40.55;99392.95;1766153;81;20149;-70
2022/06/17 07:50:20;;;;;;;;;;;;;;;23.24;40.51;99392.34;1777383;80;20141;-69
2022/06/17 07:52:47;;;;;;;;;;;;;;;23.35;41.41;99390.30;1772035;79;21142;-71
2022/06/17 07:55:13;;;;;;;;;;;;;;;23.42;42.11;99384.48;1765981;81;20563;-71
2022/06/17 07:57:42;;;;;;;;;;;;;;;23.47;41.85;99387.66;1765964;81;20523;-70
2022/06/17 08:00:11;;;;;;;;;;;;;;;23.48;40.57;99378.06;1765885;81;20460;-69
2022/06/17 08:02:39;;;;;;;;;;;;;;;23.37;40.49;99385.70;1765617;81;20153;-70
2022/06/17 08:05:07;;;;;;;;;;;;;;;23.29;40.79;99386.33;1766384;81;20656;-70
2022/06/17 08:07:33;;;;;;;;;;;;;;;23.34;40.27;99387.31;1761118;81;20086;-70
2022/06/17 08:09:59;;;;;;;;;;;;;;;23.49;40.84;99385.86;1759646;81;20118;-69
2022/06/17 08:12:25;;;;;;;;;;;;;;;23.73;42.09;99380.75;1741570;82;20754;-69
2022/06/17 08:14:54;;;;;;;;;;;;;;;23.99;39.99;99378.00;1755908;81;20138;-69
2022/06/17 08:17:20;;;;;;;;;;;;;;;24.14;38.06;99374.51;1771003;81;21123;-71
2022/06/17 08:19:52;;;;;;;;;;;;;;;24.32;37.46;99383.59;1772272;81;20166;-71
2022/06/17 08:22:19;;;;;;;;;;;;;;;24.58;36.14;99376.58;1772730;81;20074;-70
2022/06/17 08:24:45;;;;;;;;;;;;;;;24.87;36.66;99372.27;1772284;81;20191;-70
2022/06/17 08:27:12;;;;;;;;;;;;;;;25.32;36.44;99372.22;1772302;81;20090;-69
2022/06/17 08:29:38;;;;;;;;;;;;;;;25.52;33.40;99374.55;1769485;81;21517;-70
2022/06/17 08:34:39;;;;;;;;;;;;;;;25.96;33.71;99378.42;1724954;81;20094;-70
2022/06/17 08:37:06;;;;;;;;;;;;;;;26.10;34.60;99373.17;1772651;81;20125;-71
2022/06/17 08:39:33;;;;;;;;;;;;;;;26.15;33.64;99366.46;1772232;81;20441;-69
2022/06/17 08:42:06;;;;;;;;;;;;;;;26.26;33.02;99367.70;1772053;81;21158;-70
2022/06/17 08:44:36;;;;;;;;;;;;;;;26.43;32.81;99367.27;1772053;81;20114;-70
2022/06/17 08:47:19;;;;;;;;;;;;;;;26.64;32.57;99368.28;1754627;81;20424;-69
2022/06/17 08:49:58;;;;;;;;;;;;;;;26.88;33.27;99366.26;1772413;81;20134;-69
2022/06/17 08:52:48;;;;;;;;;;;;;;;27.08;32.94;99369.14;1772646;81;20173;-70
2022/06/17 08:55:39;;;;;;;;;;;;;;;27.29;32.02;99364.47;1771698;81;21495;-71
2022/06/17 08:58:15;;;;;;;;;;;;;;;27.34;31.78;99371.62;1741801;82;20219;-70
2022/06/17 09:01:09;;;;;;;;;;;;;;;27.38;30.06;99363.89;1741687;82;20432;-70
2022/06/17 09:03:58;;;;;;;;;;;;;;;27.39;30.42;99366.28;1741958;82;20147;-69
2022/06/17 09:06:37;;;;;;;;;;;;;;;27.57;30.54;99355.43;1736098;82;20112;-69
2022/06/17 09:09:32;;;;;;;;;;;;;;;27.69;30.49;99360.25;1711619;84;21267;-71
2022/06/17 09:12:20;;;;;;;;;;;;;;;27.80;30.40;99361.58;1768081;81;20151;-69
2022/06/17 09:15:10;;;;;;;;;;;;;;;27.93;30.00;99360.29;1768414;81;20421;-69
2022/06/17 09:18:03;;;;;;;;;;;;;;;27.97;29.25;99358.80;1768318;81;20200;-71
2022/06/17 09:20:34;;;;;;;;;;;;;;;28.04;28.89;99350.97;1767954;81;20116;-69
2022/06/17 09:23:02;;;;;;;;;;;;;;;28.01;29.32;99356.08;1767005;80;21085;-70
2022/06/17 09:25:35;;;;;;;;;;;;;;;27.92;30.05;99352.45;1771205;79;20158;-70
2022/06/17 09:28:01;;;;;;;;;;;;;;;28.03;29.71;99350.00;1777507;79;20082;-70
2022/06/17 09:30:33;;;;;;;;;;;;;;;28.34;28.86;99345.62;1760064;81;20137;-70
2022/06/17 09:33:11;;;;;;;;;;;;;;;28.57;27.62;99351.70;1760141;81;20079;-70
2022/06/17 09:35:41;;;;;;;;;;;;;;;28.67;27.45;99346.40;1760801;81;21732;-70
2022/06/17 09:38:17;;;;;;;;;;;;;;;28.75;28.43;99353.45;1760630;81;20434;-69
2022/06/17 09:40:55;;;;;;;;;;;;;;;28.70;27.44;99351.16;1760948;81;20142;-69
2022/06/17 09:43:31;;;;;;;;;;;;;;;28.31;27.58;99346.50;1760871;81;20111;-70
2022/06/17 09:46:22;;;;;;;;;;;;;;;28.00;28.69;99351.67;1761175;81;20099;-69
2022/06/17 09:48:56;;;;;;;;;;;;;;;27.81;28.48;99349.07;1760869;81;20430;-70
2022/06/17 09:51:35;;;;;;;;;;;;;;;27.58;28.79;99348.56;1761050;81;20133;-70
2022/06/17 09:54:17;;;;;;;;;;;;;;;27.34;29.73;99352.69;1737170;81;20082;-69
2022/06/17 09:56:53;;;;;;;;;;;;;;;27.19;29.51;99351.39;1760620;81;20106;-69
2022/06/17 09:59:47;;;;;;;;;;;;;;;27.33;29.49;99345.47;1760760;81;20453;-71
2022/06/17 10:02:21;;;;;;;;;;;;;;;27.57;30.14;99336.31;1759651;80;21211;-73
2022/06/17 10:04:47;;;;;;;;;;;;;;;27.90;29.52;99339.39;1736997;81;20102;-72
2022/06/17 10:07:38;;;;;;;;;;;;;;;28.28;28.20;99329.68;1760169;81;20450;-72
2022/06/17 10:10:27;;;;;;;;;;;;;;;28.53;27.36;99335.47;1758353;81;20509;-73
2022/06/17 10:13:12;;;;;;;;;;;;;;;28.75;26.81;99337.13;1740285;82;20192;-78
2022/06/17 10:18:31;;;;;;;;;;;;;;;28.96;26.62;99331.52;1741059;81;21213;-75
2022/06/17 10:18:32;;;;;;;;;;;;;;;29.22;24.65;99330.37;1789187;79;20123;-72
2022/06/17 10:21:15;;;;;;;;;;;;;;;29.38;26.25;99323.25;1793689;80;20210;-70
2022/06/17 10:23:51;;;;;;;;;;;;;;;29.62;25.88;99327.20;1793755;80;20442;-71
2022/06/17 10:26:21;;;;;;;;;;;;;;;29.87;25.40;99324.41;1793373;79;20148;-70
2022/06/17 10:29:25;;;;;;;;;;;;;;;30.01;25.12;99314.08;1792595;79;21104;-73
2022/06/17 10:31:51;;;;;;;;;;;;;;;30.13;25.18;99309.63;1793431;80;20201;-70
2022/06/17 10:34:21;;;;;;;;;;;;;;;30.20;24.91;99313.02;1793783;80;20911;-69
2022/06/17 10:36:52;;;;;;;;;;;;;;;30.31;24.57;99309.84;1793584;80;20147;-72
2022/06/17 10:39:17;;;;;;;;;;;;;;;30.33;23.08;99310.80;1793630;80;20167;-71
2022/06/17 10:41:43;;;;;;;;;;;;;;;30.10;23.84;99302.84;1793976;80;21106;-73
2022/06/17 10:44:11;;;;;;;;;;;;;;;29.89;23.42;99303.52;1793745;80;20152;-71
2022/06/17 10:46:39;;;;;;;;;;;;;;;29.54;22.80;99304.79;1793544;80;20132;-72
2022/06/17 10:49:10;;;;;;;;;;;;;;;29.23;24.25;99305.91;1793839;80;20195;-73
2022/06/17 10:51:36;;;;;;;;;;;;;;;29.00;24.80;99307.58;1793864;80;20175;-73
2022/06/17 10:54:08;;;;;;;;;;;;;;;28.72;24.78;99316.20;1793822;80;21089;-71
2022/06/17 10:56:39;;;;;;;;;;;;;;;28.55;25.54;99303.34;1794074;79;20127;-72
2022/06/17 10:59:09;;;;;;;;;;;;;;;28.42;26.27;99308.92;1794956;79;20164;-74
2022/06/17 11:01:52;;;;;;;;;;;;;;;28.42;28.18;99307.50;1795052;80;20175;-73
2022/06/17 11:04:30;;;;;;;;;;;;;;;28.40;27.79;99308.56;1794747;80;20084;-72
2022/06/17 11:07:16;;;;;;;;;;;;;;;28.49;26.56;99303.70;1790190;79;21114;-73
2022/06/17 11:09:55;;;;;;;;;;;;;;;28.47;27.44;99297.70;1765185;80;20098;-72
2022/06/17 11:12:35;;;;;;;;;;;;;;;28.41;25.96;99300.89;1765797;81;20150;-72
2022/06/17 11:15:05;;;;;;;;;;;;;;;28.32;25.73;99295.87;1766059;80;20131;-73
2022/06/17 11:17:35;;;;;;;;;;;;;;;28.48;25.47;99293.03;1766238;81;20106;-72
2022/06/17 11:20:06;;;;;;;;;;;;;;;28.72;25.32;99292.20;1785139;80;20098;-72
2022/06/17 11:22:38;;;;;;;;;;;;;;;28.97;26.14;99282.25;1764613;81;20082;-73
2022/06/17 11:25:35;;;;;;;;;;;;;;;29.22;24.56;99276.05;1766832;81;20161;-72
2022/06/17 11:28:33;;;;;;;;;;;;;;;29.26;23.51;99271.71;1766483;80;20158;-72
2022/06/17 11:31:02;;;;;;;;;;;;;;;29.13;23.66;99268.05;1765944;81;20121;-74
2022/06/17 11:33:32;;;;;;;;;;;;;;;29.16;24.93;99267.16;1765930;80;21757;-71
2022/06/17 11:36:03;;;;;;;;;;;;;;;29.38;24.81;99262.46;1766179;81;20477;-71
2022/06/17 11:38:31;;;;;;;;;;;;;;;29.69;25.40;99258.48;1766169;80;20149;-72
2022/06/17 11:41:00;;;;;;;;;;;;;;;30.11;24.37;99257.72;1766022;80;20465;-71
2022/06/17 11:43:32;;;;;;;;;;;;;;;30.17;23.84;99252.27;1766225;81;20126;-73
2022/06/17 11:46:07;;;;;;;;;;;;;;;29.82;23.33;99257.85;1759064;81;21164;-72
2022/06/17 11:48:36;;;;;;;;;;;;;;;29.31;24.92;99252.78;1766484;81;20098;-72
2022/06/17 11:51:08;;;;;;;;;;;;;;;29.02;26.62;99251.41;1742991;81;20093;-74
2022/06/17 11:53:49;;;;;;;;;;;;;;;28.85;26.82;99259.19;1766061;80;20173;-74
2022/06/17 11:56:33;;;;;;;;;;;;;;;28.90;26.16;99258.61;1766517;81;20110;-73
2022/06/17 11:59:03;;;;;;;;;;;;;;;28.97;26.49;99259.02;1766083;81;21123;-72
2022/06/17 12:01:30;;;;;;;;;;;;;;;28.97;25.32;99251.17;1758784;81;20460;-72
2022/06/17 12:03:56;;;;;;;;;;;;;;;28.97;25.33;99252.58;1766265;81;20157;-74
2022/06/17 12:06:27;;;;;;;;;;;;;;;29.14;25.71;99253.48;1766114;80;20122;-73
2022/06/17 12:08:59;;;;;;;;;;;;;;;29.44;25.69;99242.94;1766467;80;20094;-73
2022/06/17 12:11:30;;;;;;;;;;;;;;;29.50;25.51;99241.09;1764164;81;21161;-70
2022/06/17 12:13:58;;;;;;;;;;;;;;;29.38;26.31;99241.25;1762098;81;20178;-68
2022/06/17 12:16:40;;;;;;;;;;;;;;;29.19;27.64;99238.80;1763006;81;20102;-70
2022/06/17 12:19:14;;;;;;;;;;;;;;;29.12;28.18;99231.15;1762756;81;20125;-70
2022/06/17 12:22:04;;;;;;;;;;;;;;;28.98;28.43;99225.91;1763703;81;20134;-70
2022/06/17 12:24:40;;;;;;;;;;;;;;;28.85;27.78;99220.25;1763227;80;21133;-72
2022/06/17 12:27:24;;;;;;;;;;;;;;;28.72;27.87;99228.66;1764164;80;20129;-73
2022/06/17 12:30:05;;;;;;;;;;;;;;;28.66;27.31;99223.37;1764577;81;20101;-73
2022/06/17 12:32:35;;;;;;;;;;;;;;;28.67;28.54;99217.11;1761820;80;20153;-72
2022/06/17 12:35:22;;;;;;;;;;;;;;;28.79;27.78;99216.36;1738835;80;20467;-69
2022/06/17 12:38:04;;;;;;;;;;;;;;;28.83;27.99;99217.08;1764275;80;20753;-71
2022/06/17 12:40:44;;;;;;;;;;;;;;;29.02;28.96;99217.50;1764348;80;20113;-70
2022/06/17 12:43:20;;;;;;;;;;;;;;;29.09;27.74;99214.47;1764393;81;20445;-70
2022/06/17 12:46:03;;;;;;;;;;;;;;;28.89;28.38;99216.67;1764567;81;20122;-69
2022/06/17 12:48:45;;;;;;;;;;;;;;;28.64;28.53;99215.97;1763144;81;20118;-69
2022/06/17 12:54:32;;;;;;;;;;;;;;;27.78;28.90;99208.14;1764167;81;20484;-73
2022/06/17 12:57:13;;;;;;;;;;;;;;;27.58;29.58;99202.56;1764531;80;20109;-72
2022/06/17 12:59:43;;;;;;;;;;;;;;;27.40;30.59;99200.78;1764272;80;20094;-72
2022/06/17 13:02:22;;;;;;;;;;;;;;;27.46;31.17;99204.05;1764649;80;20094;-69
2022/06/17 13:05:25;;;;;;;;;;;;;;;27.61;30.79;99205.95;1764227;80;21140;-70
2022/06/17 13:08:12;;;;;;;;;;;;;;;27.71;29.97;99205.52;1761860;81;20122;-69
2022/06/17 13:11:12;;;;;;;;;;;;;;;27.79;30.88;99207.70;1756941;81;20134;-68
2022/06/17 13:13:59;;;;;;;;;;;;;;;27.77;30.65;99210.16;1757881;81;20110;-70
2022/06/17 13:16:41;;;;;;;;;;;;;;;27.64;29.48;99204.28;1757306;81;20156;-68
2022/06/17 13:19:20;;;;;;;;;;;;;;;27.56;30.21;99207.23;1757960;80;21137;-68
2022/06/17 13:22:02;;;;;;;;;;;;;;;27.47;29.91;99211.89;1757972;81;20504;-69
2022/06/17 13:24:37;;;;;;;;;;;;;;;27.42;29.99;99207.56;1758013;81;20114;-70
2022/06/17 13:27:07;;;;;;;;;;;;;;;27.39;30.97;99202.80;1773990;80;20441;-70
2022/06/17 13:29:57;;;;;;;;;;;;;;;27.26;32.43;99197.05;1796179;79;20104;-71